Time;durP1;ratioP1;P1;durP2;ratioP2;P2;SDS_P1;SDS_P2;PMS_P1;PMS_P2;Temp;Humidity;BMP_temperature;BMP_pressure;BME280_temperature;BME280_humidity;BME280_pressure;Samples;Min_cycle;Max_cycle;Signal;HPM_P1;HPM_P2
2023/12/19 00:00:16;;;;;;;5.50;3.93;;;;;;;5.75;79.54;100417.38;7256330;40;20826;31
2023/12/19 00:05:51;;;;;;;5.47;4.20;;;;;;;5.70;79.90;100421.34;7235777;40;20258;31
2023/12/19 00:11:26;;;;;;;6.07;3.87;;;;;;;5.75;80.77;100416.50;7182166;40;20344;31
2023/12/19 00:16:47;;;;;;;7.60;4.20;;;;;;;5.70;79.77;100424.03;7219290;40;20347;31
2023/12/19 00:22:24;;;;;;;5.90;3.90;;;;;;;5.65;79.70;100423.47;7247556;40;20264;31
2023/12/19 00:27:59;;;;;;;5.97;3.90;;;;;;;5.61;79.76;100413.94;7231977;40;20249;31
2023/12/19 00:33:20;;;;;;;5.23;4.00;;;;;;;5.61;80.58;100397.91;7241732;40;21394;31
2023/12/19 00:38:57;;;;;;;5.20;4.03;;;;;;;5.52;79.34;100375.34;7248198;40;20303;31
2023/12/19 00:44:17;;;;;;;5.47;4.13;;;;;;;5.51;79.71;100380.78;7257712;40;20241;31
2023/12/19 00:49:38;;;;;;;5.60;4.20;;;;;;;5.48;80.58;100386.34;7244875;40;20272;31
2023/12/19 00:55:13;;;;;;;5.05;4.35;;;;;;;5.41;79.99;100394.78;7316750;39;20259;31
2023/12/19 01:00:31;;;;;;;5.84;4.22;;;;;;;5.40;80.26;100370.81;7288578;40;20436;31
2023/12/19 01:05:52;;;;;;;4.60;3.80;;;;;;;5.37;79.78;100371.03;7258680;40;20245;31
2023/12/19 01:11:27;;;;;;;5.17;4.40;;;;;;;5.29;79.81;100366.22;7297394;39;21656;31
2023/12/19 01:17:02;;;;;;;5.00;4.05;;;;;;;5.30;79.76;100359.91;7276769;39;20281;31
2023/12/19 01:22:38;;;;;;;4.20;3.00;;;;;;;5.23;80.02;100368.44;7230663;40;20301;31
2023/12/19 01:28:12;;;;;;;5.90;4.57;;;;;;;5.22;80.42;100375.59;7216125;40;20455;31
2023/12/19 01:33:47;;;;;;;5.65;4.30;;;;;;;5.22;80.28;100390.78;7158000;40;20243;31
2023/12/19 01:39:07;;;;;;;5.57;3.80;;;;;;;5.25;80.36;100386.09;7198895;40;20403;31
2023/12/19 01:44:44;;;;;;;7.23;4.70;;;;;;;5.18;79.72;100389.28;7217249;40;20242;31
2023/12/19 01:50:19;;;;;;;6.55;4.20;;;;;;;5.14;80.52;100393.97;7176421;40;20239;31
2023/12/19 01:55:55;;;;;;;6.60;4.65;;;;;;;5.15;80.41;100379.66;7176336;40;20493;31
2023/12/19 02:01:27;;;;;;;8.10;4.40;;;;;;;5.10;80.53;100405.81;7136168;40;20335;31
2023/12/19 02:07:02;;;;;;;6.55;4.50;;;;;;;4.97;80.81;100383.53;7129707;40;20334;31
2023/12/19 02:12:23;;;;;;;7.80;5.80;;;;;;;4.89;81.04;100370.72;7107937;41;20403;31
2023/12/19 02:17:59;;;;;;;6.90;5.60;;;;;;;4.80;80.99;100378.47;7148293;40;20262;31
2023/12/19 02:23:35;;;;;;;8.65;5.55;;;;;;;4.69;81.37;100381.88;7188910;40;20254;31
2023/12/19 02:29:10;;;;;;;7.53;5.57;;;;;;;4.59;82.13;100382.56;7225727;40;20380;31
2023/12/19 02:34:45;;;;;;;7.33;5.77;;;;;;;4.47;81.77;100371.72;7220280;40;20261;31
2023/12/19 02:40:23;;;;;;;8.20;6.40;;;;;;;4.44;81.83;100337.19;7177086;40;20248;31
2023/12/19 02:45:43;;;;;;;10.60;6.30;;;;;;;4.41;81.32;100339.22;7211596;40;20237;31
2023/12/19 02:51:19;;;;;;;9.63;6.93;;;;;;;4.34;82.80;100344.12;7240596;40;20241;31
2023/12/19 02:56:55;;;;;;;11.25;6.45;;;;;;;4.17;82.34;100360.31;7228361;40;20392;31
2023/12/19 03:02:58;;;;;;;10.20;6.60;;;;;;;4.12;82.46;100365.13;7190310;40;20683;31
2023/12/19 03:08:15;;;;;;;8.00;5.70;;;;;;;4.09;82.45;100338.63;7212771;40;20258;31
2023/12/19 03:13:51;;;;;;;7.87;5.83;;;;;;;3.95;81.99;100331.47;7200656;40;20243;31
2023/12/19 03:19:26;;;;;;;7.80;5.60;;;;;;;3.95;82.22;100338.66;7206709;40;20242;31
2023/12/19 03:24:43;;;;;;;8.17;6.27;;;;;;;3.91;83.22;100353.09;7226729;40;20485;31
2023/12/19 03:30:21;;;;;;;8.23;6.07;;;;;;;3.89;82.37;100360.38;7251260;40;20272;31
2023/12/19 03:35:41;;;;;;;8.20;6.33;;;;;;;3.92;81.79;100339.69;7233037;40;20285;31
2023/12/19 03:41:01;;;;;;;9.30;6.90;;;;;;;3.93;82.39;100333.41;7239503;40;20299;31
2023/12/19 03:46:37;;;;;;;8.67;6.43;;;;;;;3.76;81.78;100316.75;7218688;40;20237;31
2023/12/19 03:51:57;;;;;;;9.20;6.25;;;;;;;3.71;80.81;100305.53;7220551;40;20279;31
2023/12/19 03:57:17;;;;;;;9.47;7.00;;;;;;;3.68;81.82;100313.72;7231660;40;20243;31
2023/12/19 04:02:53;;;;;;;11.45;6.50;;;;;;;3.57;81.03;100299.25;7250497;40;20264;31
2023/12/19 04:08:14;;;;;;;9.20;7.05;;;;;;;3.59;81.67;100309.81;7226075;40;20387;31
2023/12/19 04:13:49;;;;;;;10.55;6.90;;;;;;;3.53;81.85;100315.50;7234180;40;20245;31
2023/12/19 04:19:23;;;;;;;9.85;6.90;;;;;;;3.54;82.37;100312.78;7180950;40;20244;31
2023/12/19 04:24:43;;;;;;;9.25;7.15;;;;;;;3.55;81.76;100300.31;7207849;40;20257;31
2023/12/19 04:30:18;;;;;;;8.67;6.80;;;;;;;3.57;81.33;100299.25;7219291;40;20249;31
2023/12/19 04:35:52;;;;;;;9.87;7.20;;;;;;;3.58;80.85;100287.63;7205294;40;20566;31
2023/12/19 04:41:12;;;;;;;11.40;7.05;;;;;;;3.48;81.28;100297.16;7178407;40;20261;31
2023/12/19 04:46:33;;;;;;;10.55;6.70;;;;;;;3.39;81.92;100292.38;7182453;40;20382;31
2023/12/19 04:52:08;;;;;;;11.10;7.67;;;;;;;3.38;81.23;100276.50;7184802;40;20374;31
2023/12/19 04:57:29;;;;;;;9.13;6.50;;;;;;;3.29;80.92;100269.09;7215939;40;20246;31
2023/12/19 05:02:49;;;;;;;10.40;7.43;;;;;;;3.27;82.26;100262.97;7244268;40;20327;31
2023/12/19 05:08:24;;;;;;;9.80;6.93;;;;;;;3.07;81.45;100282.84;7279478;40;20241;31
2023/12/19 05:13:46;;;;;;;10.75;6.80;;;;;;;3.08;82.24;100287.22;7234220;40;20640;31
2023/12/19 05:19:06;;;;;;;11.10;7.30;;;;;;;3.10;81.85;100290.66;7225811;40;20355;31
2023/12/19 05:24:42;;;;;;;11.40;7.77;;;;;;;3.13;82.02;100291.31;7236554;40;20457;31
2023/12/19 05:30:16;;;;;;;10.25;6.80;;;;;;;3.22;81.83;100281.91;7226796;40;20246;31
2023/12/19 05:35:35;;;;;;;9.85;7.35;;;;;;;3.26;81.81;100271.91;7199594;40;21308;31
2023/12/19 05:41:14;;;;;;;9.23;6.77;;;;;;;3.23;81.23;100262.31;7225729;40;20292;31
2023/12/19 05:46:42;;;;;;;9.25;6.95;;;;;;;3.30;81.14;100276.09;7073881;40;21271;31
2023/12/19 05:52:04;;;;;;;8.60;6.15;;;;;;;3.29;81.00;100272.56;7262123;40;20250;31
2023/12/19 05:57:40;;;;;;;9.57;7.30;;;;;;;3.17;81.72;100281.31;7272596;40;20256;31
2023/12/19 06:03:15;;;;;;;10.40;6.70;;;;;;;3.11;81.47;100290.56;7236719;40;20273;31
2023/12/19 06:08:36;;;;;;;9.57;6.67;;;;;;;3.18;82.05;100312.34;7227622;40;20403;31
2023/12/19 06:14:12;;;;;;;8.73;6.43;;;;;;;3.13;80.99;100296.62;7202427;40;20266;31
2023/12/19 06:19:33;;;;;;;9.13;6.17;;;;;;;3.17;81.88;100321.28;7212570;40;20277;31
2023/12/19 06:25:08;;;;;;;8.90;6.30;;;;;;;3.08;80.59;100320.03;7240394;40;20237;31
2023/12/19 06:30:42;;;;;;;7.95;6.35;;;;;;;3.03;82.06;100322.09;7224957;40;20267;31
2023/12/19 06:36:17;;;;;;;9.40;6.73;;;;;;;3.06;81.50;100324.59;7140978;40;20323;31
2023/12/19 06:41:35;;;;;;;8.57;6.68;;;;;;;3.06;82.46;100326.41;7161614;40;20521;31
2023/12/19 06:47:09;;;;;;;7.93;5.67;;;;;;;3.01;81.96;100337.34;7178813;40;20238;31
2023/12/19 06:52:41;;;;;;;9.27;6.60;;;;;;;3.03;81.24;100321.25;7131804;40;20569;31
2023/12/19 06:58:14;;;;;;;9.00;6.33;;;;;;;2.96;82.87;100318.09;7192438;40;20254;31
2023/12/19 07:03:51;;;;;;;9.37;6.77;;;;;;;2.90;84.03;100296.28;7215669;40;20328;31
2023/12/19 07:09:14;;;;;;;8.95;6.45;;;;;;;2.92;83.03;100295.28;7216442;40;20253;31
2023/12/19 07:14:30;;;;;;;7.90;5.95;;;;;;;2.99;83.12;100295.75;7229414;40;20457;31
2023/12/19 07:20:08;;;;;;;10.40;7.50;;;;;;;2.96;82.93;100294.13;7198378;40;20476;31
2023/12/19 07:25:29;;;;;;;11.25;7.55;;;;;;;3.06;83.78;100300.63;7240394;40;20387;31
2023/12/19 07:31:05;;;;;;;10.47;7.10;;;;;;;3.11;83.29;100295.03;7225574;40;20379;31
2023/12/19 07:36:41;;;;;;;8.40;6.40;;;;;;;3.11;84.07;100271.94;7219252;40;20258;31
2023/12/19 07:42:01;;;;;;;9.47;6.70;;;;;;;3.20;83.82;100267.84;7201526;40;20316;31
2023/12/19 07:47:22;;;;;;;9.57;7.13;;;;;;;3.18;84.18;100259.06;7184492;40;20317;31
2023/12/19 07:52:56;;;;;;;10.80;7.40;;;;;;;3.13;84.89;100250.50;7242167;40;21294;31
2023/12/19 07:58:16;;;;;;;10.80;6.77;;;;;;;3.05;84.97;100256.31;7181152;40;20248;31
2023/12/19 08:03:36;;;;;;;10.80;7.85;;;;;;;3.05;84.95;100248.31;7221611;40;20318;31
2023/12/19 08:09:10;;;;;;;10.10;7.35;;;;;;;3.09;84.86;100236.53;7219262;40;20381;31
2023/12/19 08:14:45;;;;;;;9.60;6.85;;;;;;;3.13;84.06;100232.72;7205747;40;20804;31
2023/12/19 08:25:21;;;;;;;11.00;7.80;;;;;;;3.24;84.77;100225.88;7221716;40;20256;31
2023/12/19 08:30:57;;;;;;;11.00;7.50;;;;;;;3.25;85.96;100243.59;7237970;40;20294;31
2023/12/19 08:36:33;;;;;;;10.97;7.57;;;;;;;3.27;85.78;100250.53;7250550;40;20246;31
2023/12/19 08:42:09;;;;;;;11.35;7.85;;;;;;;3.23;86.19;100248.13;7178672;40;20268;31
2023/12/19 08:47:30;;;;;;;10.50;7.25;;;;;;;3.25;86.15;100248.91;7168491;40;20356;31
2023/12/19 08:52:52;;;;;;;10.60;8.10;;;;;;;3.36;85.66;100247.28;7195903;40;20382;31
2023/12/19 08:58:27;;;;;;;10.10;7.70;;;;;;;3.44;85.87;100242.34;7187545;40;20325;31
2023/12/19 09:04:03;;;;;;;11.30;7.85;;;;;;;3.52;85.83;100245.38;7185514;40;20301;31
2023/12/19 09:09:39;;;;;;;10.90;7.50;;;;;;;3.55;85.26;100247.81;7235932;40;20585;31
2023/12/19 09:15:17;;;;;;;10.35;7.20;;;;;;;3.62;84.61;100243.84;7199913;40;20262;31
2023/12/19 09:20:38;;;;;;;9.20;6.70;;;;;;;3.68;85.78;100239.94;7236461;40;20242;31
2023/12/19 09:25:58;;;;;;;9.47;7.00;;;;;;;3.68;85.26;100236.41;7226326;40;20243;31
2023/12/19 09:31:34;;;;;;;8.73;6.50;;;;;;;3.57;85.98;100224.63;7269864;40;20350;31
2023/12/19 09:36:54;;;;;;;10.10;6.50;;;;;;;3.49;85.70;100223.37;7216204;40;20262;31
2023/12/19 09:42:31;;;;;;;9.50;6.37;;;;;;;3.42;86.32;100225.56;7204790;40;20463;31
2023/12/19 09:48:08;;;;;;;8.40;5.40;;;;;;;3.42;87.07;100220.25;7169681;40;20822;31
2023/12/19 09:53:43;;;;;;;8.57;5.70;;;;;;;3.41;86.32;100223.03;7252469;39;20254;31
2023/12/19 09:59:18;;;;;;;8.30;6.03;;;;;;;3.45;86.66;100212.06;7258301;40;20366;31
2023/12/19 10:04:55;;;;;;;6.73;4.83;;;;;;;3.67;86.76;100216.91;7258211;40;20374;31
2023/12/19 10:10:15;;;;;;;6.33;4.50;;;;;;;3.81;85.85;100219.53;7218475;40;20265;31
2023/12/19 10:15:35;;;;;;;6.50;5.03;;;;;;;3.97;86.78;100192.72;7197627;40;20234;31
2023/12/19 10:21:19;;;;;;;8.80;5.57;;;;;;;3.96;85.64;100188.31;7201844;40;20246;31
2023/12/19 10:26:55;;;;;;;5.90;4.20;;;;;;;3.90;85.95;100184.28;7207750;40;20257;31
2023/12/19 10:32:30;;;;;;;6.90;4.95;;;;;;;3.95;86.40;100165.31;7157209;40;20246;31
2023/12/19 10:38:07;;;;;;;6.57;5.03;;;;;;;3.92;86.87;100152.16;7170545;40;20388;31
2023/12/19 10:43:43;;;;;;;9.15;5.20;;;;;;;3.91;86.63;100150.44;7221034;40;20275;31
2023/12/19 10:49:18;;;;;;;9.13;5.70;;;;;;;3.88;86.85;100139.97;7258571;40;20348;31
2023/12/19 10:54:52;;;;;;;6.97;4.57;;;;;;;3.85;87.72;100126.88;7243397;40;20563;31
2023/12/19 11:00:30;;;;;;;9.85;4.60;;;;;;;3.77;87.43;100115.84;7180216;40;20262;31
2023/12/19 11:06:05;;;;;;;5.93;4.27;;;;;;;3.76;88.78;100112.34;7216398;40;20289;31
2023/12/19 11:11:39;;;;;;;8.93;6.10;;;;;;;3.80;87.56;100094.31;7156657;40;20549;31
2023/12/19 11:17:12;;;;;;;6.90;4.50;;;;;;;3.76;89.26;100080.34;7159239;40;20640;31
2023/12/19 11:22:47;;;;;;;5.17;3.77;;;;;;;3.77;88.17;100081.19;7178155;40;20479;31
2023/12/19 11:28:26;;;;;;;5.90;4.30;;;;;;;3.84;88.13;100075.34;7206838;40;20252;31
2023/12/19 11:33:45;;;;;;;5.73;4.03;;;;;;;3.93;88.51;100073.88;7247868;40;20251;31
2023/12/19 11:39:38;;;;;;;5.43;4.00;;;;;;;3.92;89.52;100067.69;7236645;40;20260;31
2023/12/19 11:45:15;;;;;;;4.65;3.75;;;;;;;3.84;89.70;100050.50;7160383;40;20258;31
2023/12/19 11:51:00;;;;;;;5.80;4.00;;;;;;;3.91;89.77;100030.44;7111992;40;20258;31
2023/12/19 11:56:36;;;;;;;5.20;4.20;;;;;;;3.98;88.35;100040.59;7100086;40;20249;31
2023/12/19 12:02:08;;;;;;;5.28;3.80;;;;;;;3.98;89.70;100013.06;6953940;40;20248;31
2023/12/19 12:07:29;;;;;;;7.53;4.37;;;;;;;4.08;89.38;100006.16;7162154;40;20322;31
2023/12/19 12:13:02;;;;;;;5.60;4.10;;;;;;;4.04;88.92;100000.16;7196568;40;20651;31
2023/12/19 12:18:36;;;;;;;6.73;4.10;;;;;;;4.01;90.00;99994.19;7188208;40;20259;31
2023/12/19 12:24:12;;;;;;;5.43;4.00;;;;;;;4.01;89.89;99972.84;7209762;40;20247;31
2023/12/19 12:29:51;;;;;;;6.00;4.20;;;;;;;3.92;89.37;99965.47;7197531;40;20281;31
2023/12/19 12:35:40;;;;;;;6.10;4.00;;;;;;;3.90;89.84;99952.28;7137009;40;20233;31
2023/12/19 12:41:13;;;;;;;6.40;4.40;;;;;;;3.90;90.32;99943.44;7107549;40;20373;31
2023/12/19 12:46:48;;;;;;;4.97;3.63;;;;;;;3.94;90.16;99939.59;7217867;40;20307;31
2023/12/19 12:52:24;;;;;;;6.80;4.10;;;;;;;3.95;89.43;99919.97;7197278;40;20345;31
2023/12/19 12:58:01;;;;;;;7.50;5.70;;;;;;;3.94;89.88;99902.25;7215966;40;20238;31
2023/12/19 13:03:22;;;;;;;7.70;4.85;;;;;;;4.03;89.63;99883.78;7187722;40;20244;31
2023/12/19 13:08:57;;;;;;;6.57;4.87;;;;;;;4.05;90.43;99873.00;7239268;40;20234;31
2023/12/19 13:14:33;;;;;;;6.77;4.70;;;;;;;4.07;89.58;99869.28;7228906;40;20243;31
2023/12/19 13:19:54;;;;;;;6.70;4.37;;;;;;;4.10;90.17;99860.19;7199824;40;20246;31
2023/12/19 13:25:28;;;;;;;5.85;3.90;;;;;;;4.04;90.67;99869.47;7224355;40;20357;31
2023/12/19 13:30:45;;;;;;;6.15;4.10;;;;;;;4.07;91.31;99877.28;7253934;40;20223;31
2023/12/19 13:36:21;;;;;;;7.60;4.80;;;;;;;4.03;90.72;99862.44;7235467;40;20241;31
2023/12/19 13:42:00;;;;;;;6.30;4.50;;;;;;;3.98;90.29;99858.41;7168444;40;20237;31
2023/12/19 13:47:18;;;;;;;5.17;3.43;;;;;;;3.97;91.27;99860.22;7173190;40;20286;31
2023/12/19 13:52:54;;;;;;;6.23;4.43;;;;;;;4.02;91.85;99851.88;7176308;40;20258;31
2023/12/19 13:58:31;;;;;;;5.47;4.20;;;;;;;4.01;90.67;99829.69;7185430;40;20722;31
2023/12/19 14:09:07;;;;;;;6.50;3.90;;;;;;;3.92;92.59;99829.50;7165807;40;21321;31
2023/12/19 14:14:45;;;;;;;6.80;4.00;;;;;;;3.95;91.92;99826.63;7185740;40;20273;31
2023/12/19 14:20:05;;;;;;;5.40;4.05;;;;;;;4.06;92.35;99824.88;7185776;40;20270;31
2023/12/19 14:25:38;;;;;;;6.30;4.35;;;;;;;4.03;91.82;99810.94;7200896;40;20454;31
2023/12/19 14:31:16;;;;;;;5.33;4.10;;;;;;;3.99;93.17;99798.78;7254301;40;20389;31
2023/12/19 14:36:50;;;;;;;4.47;3.30;;;;;;;3.96;92.94;99786.50;7243668;40;20258;31
2023/12/19 14:42:10;;;;;;;7.65;3.65;;;;;;;4.02;92.99;99785.22;7248352;40;20351;31
2023/12/19 14:47:46;;;;;;;5.90;3.97;;;;;;;4.04;93.75;99767.25;7299640;39;20374;31
2023/12/19 14:53:06;;;;;;;5.57;4.20;;;;;;;4.12;93.68;99769.41;7229483;40;20360;31
2023/12/19 14:58:26;;;;;;;5.23;3.70;;;;;;;4.23;92.50;99772.13;7218683;40;20321;31
2023/12/19 15:04:02;;;;;;;5.10;3.77;;;;;;;4.22;92.62;99768.59;7210709;40;20242;31
2023/12/19 15:09:22;;;;;;;5.00;3.27;;;;;;;4.30;93.29;99779.56;7163405;40;20265;31
2023/12/19 15:14:39;;;;;;;4.93;3.53;;;;;;;4.30;93.69;99773.37;7212355;40;21251;31
2023/12/19 15:20:16;;;;;;;5.43;3.43;;;;;;;4.26;93.05;99755.88;7229719;40;20333;31
2023/12/19 15:25:50;;;;;;;5.17;3.80;;;;;;;4.30;93.28;99746.72;7186391;40;20550;31
2023/12/19 15:31:10;;;;;;;6.50;4.20;;;;;;;4.32;94.06;99753.62;7235718;40;20254;31
2023/12/19 15:36:46;;;;;;;8.10;4.20;;;;;;;4.33;93.84;99741.13;7213668;40;20275;31
2023/12/19 15:47:09;;;;;;;5.37;3.87;;;;;;;4.40;95.21;99729.03;7153810;40;20718;31
2023/12/19 15:52:44;;;;;;;6.25;4.20;;;;;;;4.43;94.74;99712.81;7161537;40;20270;31
2023/12/19 15:58:04;;;;;;;6.07;4.00;;;;;;;4.47;94.47;99715.12;7243028;40;20391;31
2023/12/19 16:03:24;;;;;;;7.17;4.30;;;;;;;4.48;95.32;99716.81;7260507;40;20258;31
2023/12/19 16:08:58;;;;;;;6.20;4.40;;;;;;;4.53;94.54;99703.97;7256901;40;20246;31
2023/12/19 16:14:35;;;;;;;6.53;4.37;;;;;;;4.58;94.99;99690.28;7208702;40;20253;31
2023/12/19 16:19:54;;;;;;;7.80;4.80;;;;;;;4.64;95.22;99686.28;7177019;40;20314;31
2023/12/19 16:25:28;;;;;;;7.80;4.40;;;;;;;4.69;94.71;99671.63;7215458;40;20265;31
2023/12/19 16:31:04;;;;;;;7.22;4.40;;;;;;;4.71;94.50;99667.00;7216444;40;20388;31
2023/12/19 16:36:40;;;;;;;7.03;4.70;;;;;;;4.75;94.74;99668.47;7169407;40;20407;31
2023/12/19 16:47:17;;;;;;;8.00;4.50;;;;;;;4.85;95.00;99623.22;7151956;40;20259;31
2023/12/19 16:52:37;;;;;;;6.03;4.53;;;;;;;4.94;95.66;99630.50;7204900;40;20258;31
2023/12/19 16:58:13;;;;;;;10.07;5.70;;;;;;;4.96;95.81;99610.72;7232468;40;20245;31
2023/12/19 17:03:50;;;;;;;23.65;15.65;;;;;;;4.89;94.58;99596.16;7214923;40;20254;31
2023/12/19 17:09:26;;;;;;;12.50;8.45;;;;;;;4.88;94.17;99606.94;7158653;40;20226;31
2023/12/19 17:14:43;;;;;;;11.43;6.40;;;;;;;4.94;94.61;99590.44;7168225;40;20575;31
2023/12/19 17:20:21;;;;;;;6.60;4.40;;;;;;;4.93;95.00;99568.22;7138232;40;20262;31
2023/12/19 17:25:40;;;;;;;11.93;6.10;;;;;;;5.02;94.65;99555.97;7196249;40;20303;31
2023/12/19 17:31:15;;;;;;;11.50;8.53;;;;;;;5.01;94.28;99538.22;7164091;40;20289;31
2023/12/19 17:36:51;;;;;;;23.85;14.05;;;;;;;5.02;94.61;99513.22;7172142;40;20415;31
2023/12/19 17:47:30;;;;;;;9.23;7.20;;;;;;;5.12;95.13;99519.53;7223754;40;20694;31
2023/12/19 17:53:07;;;;;;;9.60;6.40;;;;;;;5.25;95.45;99535.41;7205100;40;20367;31
2023/12/19 17:58:42;;;;;;;5.57;3.40;;;;;;;5.34;96.07;99546.22;7222026;40;20230;31
2023/12/19 18:04:17;;;;;;;4.70;3.00;;;;;;;5.42;96.31;99541.06;7200646;40;20312;31
2023/12/19 18:14:52;;;;;;;4.43;3.03;;;;;;;5.55;96.29;99542.72;7194397;40;21296;31
2023/12/19 18:25:32;;;;;;;5.00;3.20;;;;;;;5.61;96.43;99532.41;7230786;40;20876;31
2023/12/19 18:31:08;;;;;;;4.87;3.53;;;;;;;5.63;96.52;99535.78;7239057;40;20246;31
2023/12/19 18:36:41;;;;;;;4.90;3.00;;;;;;;5.65;96.79;99535.66;7192190;40;20333;31
2023/12/19 18:42:13;;;;;;;4.85;2.95;;;;;;;5.62;97.23;99533.22;7014285;40;21166;31
2023/12/19 18:47:49;;;;;;;5.15;3.30;;;;;;;5.61;98.06;99510.16;7158044;40;20285;31
2023/12/19 18:58:25;;;;;;;4.20;3.00;;;;;;;5.64;97.86;99525.94;7181631;40;21333;31
2023/12/19 19:04:02;;;;;;;5.13;2.97;;;;;;;5.64;98.36;99508.06;7254502;39;20249;31
2023/12/19 19:09:37;;;;;;;4.20;2.80;;;;;;;5.65;98.79;99508.91;7221770;40;20246;31
2023/12/19 19:14:57;;;;;;;2.80;2.43;;;;;;;5.64;98.83;99513.41;7252144;40;20340;31
2023/12/19 19:20:48;;;;;;;4.10;2.70;;;;;;;5.64;98.14;99504.53;7211286;40;21473;31
2023/12/19 19:26:25;;;;;;;2.70;2.20;;;;;;;5.66;98.49;99507.97;7169191;40;21346;31
2023/12/19 19:31:51;;;;;;;6.30;3.00;;;;;;;5.64;98.98;99489.34;7219839;40;20320;31
2023/12/19 19:37:28;;;;;;;3.47;2.10;;;;;;;5.64;99.17;99481.34;7188937;40;20243;31
2023/12/19 19:43:00;;;;;;;3.85;2.30;;;;;;;5.63;99.92;99481.44;7164295;40;20247;31
2023/12/19 19:48:35;;;;;;;7.10;3.50;;;;;;;5.67;99.45;99482.87;7201867;40;20386;31
2023/12/19 19:54:11;;;;;;;4.13;2.60;;;;;;;5.67;99.37;99469.53;7161634;40;20390;31
2023/12/19 19:59:32;;;;;;;5.87;2.67;;;;;;;5.69;99.69;99449.72;7159417;40;20305;31
2023/12/19 20:05:08;;;;;;;3.25;2.30;;;;;;;5.71;99.89;99426.34;7153456;40;20238;31
2023/12/19 20:10:44;;;;;;;2.53;1.77;;;;;;;5.70;100.00;99424.69;7189381;40;20504;31
2023/12/19 20:16:18;;;;;;;3.30;2.70;;;;;;;5.70;100.00;99415.81;7160742;40;20262;31
2023/12/19 20:21:54;;;;;;;5.40;2.77;;;;;;;5.72;100.00;99416.50;7149037;40;20378;31
2023/12/19 20:27:28;;;;;;;4.20;2.80;;;;;;;5.72;99.54;99398.63;7167219;40;20342;31
2023/12/19 20:32:48;;;;;;;3.55;2.85;;;;;;;5.78;100.00;99418.66;7149658;40;20263;31
2023/12/19 20:38:09;;;;;;;4.87;2.47;;;;;;;5.76;99.94;99408.09;7148359;40;20270;31
2023/12/19 20:43:44;;;;;;;5.00;3.10;;;;;;;5.75;100.00;99406.37;7159350;40;20238;31
2023/12/19 20:49:19;;;;;;;5.00;3.20;;;;;;;5.76;99.83;99392.03;7152561;40;20246;31
2023/12/19 20:54:39;;;;;;;5.53;3.37;;;;;;;5.81;100.00;99394.31;7139381;40;20240;31
2023/12/19 21:00:16;;;;;;;9.50;3.73;;;;;;;5.81;99.35;99397.00;7122977;40;20244;31
2023/12/19 21:05:51;;;;;;;4.70;3.13;;;;;;;5.83;99.76;99389.72;7157791;40;20250;31
2023/12/19 21:11:26;;;;;;;5.53;3.70;;;;;;;5.83;99.01;99389.72;7146787;40;20294;31
2023/12/19 21:17:02;;;;;;;7.75;3.80;;;;;;;5.86;99.65;99371.59;7179322;40;20243;31
2023/12/19 21:22:22;;;;;;;6.13;4.57;;;;;;;5.89;99.12;99373.12;7196878;40;20387;31
2023/12/19 21:27:55;;;;;;;13.70;8.73;;;;;;;5.87;99.88;99370.63;7188097;40;20338;31
2023/12/19 21:33:32;;;;;;;7.85;4.95;;;;;;;5.87;99.71;99364.41;7207616;40;20336;31
2023/12/19 21:39:10;;;;;;;9.63;5.87;;;;;;;5.85;99.83;99353.81;7206262;40;21646;31
2023/12/19 21:44:47;;;;;;;5.05;3.55;;;;;;;5.87;99.73;99346.53;7207645;40;20291;31
2023/12/19 21:50:24;;;;;;;3.75;2.50;;;;;;;5.89;99.64;99341.88;7190292;40;20327;31
2023/12/19 21:55:43;;;;;;;3.13;2.70;;;;;;;5.95;99.85;99332.50;7206728;40;20270;31
2023/12/19 22:01:03;;;;;;;5.50;2.90;;;;;;;5.97;99.48;99329.69;7268746;40;20342;31
2023/12/19 22:06:40;;;;;;;11.43;6.50;;;;;;;5.89;99.52;99330.34;7260440;40;20242;31
2023/12/19 22:12:15;;;;;;;7.30;5.63;;;;;;;5.78;100.00;99307.19;7300871;39;20261;31
2023/12/19 22:17:50;;;;;;;9.03;7.00;;;;;;;5.65;99.98;99306.56;7262709;40;20251;31
2023/12/19 22:23:25;;;;;;;4.97;3.43;;;;;;;5.73;100.00;99311.25;7241490;40;20296;31
2023/12/19 22:29:00;;;;;;;2.67;2.30;;;;;;;5.83;100.00;99304.12;7198160;40;20713;31
2023/12/19 22:39:40;;;;;;;3.20;2.10;;;;;;;5.93;99.84;99294.31;7174414;40;20273;31
2023/12/19 22:50:05;;;;;;;2.30;2.00;;;;;;;6.02;99.80;99298.00;7259813;40;20908;31
2023/12/19 22:55:44;;;;;;;2.33;2.13;;;;;;;6.01;99.59;99291.81;7258524;39;20434;31
2023/12/19 23:01:16;;;;;;;2.57;1.80;;;;;;;6.07;99.58;99285.06;7256984;40;20312;31
2023/12/19 23:06:51;;;;;;;2.80;1.70;;;;;;;6.02;99.40;99272.09;7238255;40;20291;31
2023/12/19 23:12:25;;;;;;;2.20;1.70;;;;;;;6.03;100.00;99264.94;7158315;40;20334;31
2023/12/19 23:17:45;;;;;;;3.65;2.00;;;;;;;6.07;100.00;99269.87;7166055;40;20247;31
2023/12/19 23:23:05;;;;;;;3.07;2.50;;;;;;;6.05;100.00;99271.00;7216446;40;20439;31
2023/12/19 23:28:41;;;;;;;2.55;2.00;;;;;;;6.05;99.73;99274.53;7218041;40;20261;31
2023/12/19 23:34:01;;;;;;;2.53;1.50;;;;;;;6.12;99.79;99270.31;7226965;40;20380;31
2023/12/19 23:39:37;;;;;;;2.20;1.33;;;;;;;6.08;99.51;99274.25;7210790;40;20246;31
2023/12/19 23:45:13;;;;;;;1.70;1.30;;;;;;;6.08;99.31;99268.03;7236822;40;20260;31
2023/12/19 23:50:33;;;;;;;1.40;1.30;;;;;;;6.08;100.00;99268.91;7248656;40;20242;31
2023/12/19 23:55:54;;;;;;;1.20;1.10;;;;;;;6.05;100.00;99255.81;7199650;40;20376;31
